Torun, Poland
Current Conditions -  °F | °C
As of 1:00 PM on Saturday 25 Oct 2014 (Local Time) from EPBY Reporting Station
Overcast Overcast  
Wind Chill: 28°   Ceiling: 1700
Heat Index: 34°   Visibility: 6mi
Dew Point: 27°   Wind: 7mph
Humidity: 75%   Direction: 140°SE
Pressure: 30.24"   Gusts: NA
Location:  53.02°N, 18.61°E
Report Text: EPBY 251100Z 14006KT 100V160 9999 OVC017 01/M03 Q1024
Loading
Personal Weather Stations






























Interactive Weather Map
Tropical Storm Tracking
New forecast layout! Learn more

10-Day Weather Forecast

Advertisements
Track Severe Weather on mobile